KINS/INS METAR and TAF weather

Enter ICAO airport designator
Station Type Date Time Source
KINS METAR 2022/06/28 23:58 UTC NOAA

KINS 282358Z AUTO 14013KT 10SM BKN160 OVC180 39/03 A2995 RMK AO2 SLP086 T03850028 10393 20362 57022 $


Station Type Date Time Source
KINS Decoded METAR 2022/06/28 23:58 UTC NOAA

Indian Springs, Indian Springs Auxiliary AFLD Nellis AFB, NV, United States (KINS) 36-35N 115-40W
Jun 28, 2022 - 07:58 PM EDT / 2022.06.28 2358 UTC
Wind: from the SE (140 degrees) at 15 MPH (13 KT):0
Visibility: 10 mile(s):0
Sky conditions: overcast
Temperature: 101.3 F (38.5 C)
Dew Point: 37.0 F (2.8 C)
Relative Humidity: 10%
Pressure (altimeter): 29.95 in. Hg (1014 hPa)
Pressure tendency: 0.06 inches (2.2 hPa) lower than three hours ago
ob: KINS 282358Z AUTO 14013KT 10SM BKN160 OVC180 39/03 A2995 RMK AO2 SLP086 T03850028 10393 20362 57022
cycle: 0

Station Type Date Time Source
KINS TAF 2022/06/28 21:18 UTC NOAA

TAF KINS 2821/3003 12014G24KT 9999 BKN120 510009 QNH3000INS TSOMTNS S
TEMPO 2821/2903 VRB21G32KT VCTS BKN090CB
BECMG 2902/2903 22015G25KT 9999 SCT120 510009 QNH3001INS
BECMG 2905/2906 22012KT 9999 FEW120 SCT150 QNH3002INS
BECMG 2908/2909 VRB06KT 9999 FEW120 QNH3005INS
BECMG 2917/2918 13010G18KT 9999 SCT120 QNH3000INS
TEMPO 2922/3002 22015G31KT 9000 -SHRA BKN090 520009 TX40/2823Z TN24/2913Z

Example: see airport list